»·PEaware :: N2608 KLAX-KSAN

N2608 :: KLAX-KSAN

FLIGHT INFORMATION

Flight Status: Arrived
Operator: Privately registered:
United States
More flights under this callsign
Pilot: James N. (18449)
Aircraft: PILATUS PC-12 EAGLE
(PC12)
More flights by this aircraft type
Origin: KLAX Los Angeles Intl
United States
Destination: KSAN San Diego Intl-Lindbergh
United States
More flights between these airports :: More routes between these airports
Route: +
File this flight plan on PilotEdge
Remarks: CAT11
Altitude:
(Current/Filed)
7,500ft
Speed:
(Current/Filed)
0kts
Departed: 31-Jul-18 08:12 PM
Arrived: 31-Jul-18 08:51 PM
Distance/Time
Traveled:
95nm/0:39
Distance/Time
To Go:
Arrived

Flight Plot

Page will automatically refresh every two minutes.


Map Options




Map Legend


Flown Route
Filed Route
Departure Airport
Arrival Airport
Navaid (VOR, NDB)
Fix

Horizontal Profiles

Position Reports

Time Latitude Longitude Heading Altitude Ground
Speed
31-Jul-18 20:03 33.932907 -118.399809 78 107ft 0kts
31-Jul-18 20:04 33.932907 -118.399809 78 107ft 0kts
31-Jul-18 20:05 33.933334 -118.399117 43 107ft 8kts
31-Jul-18 20:06 33.934582 -118.397839 87 107ft 11kts
31-Jul-18 20:07 33.934938 -118.393813 81 107ft 21kts
31-Jul-18 20:08 33.935684 -118.386903 82 107ft 19kts
31-Jul-18 20:09 33.936240 -118.382877 38 107ft 8kts
31-Jul-18 20:10 33.936414 -118.382781 11 106ft 0kts
31-Jul-18 20:11 33.936415 -118.382781 11 106ft 0kts
31-Jul-18 20:12 33.937293 -118.383566 259 107ft 16kts
31-Jul-18 20:13 33.934429 -118.415406 268 1163ft 123kts
31-Jul-18 20:14 33.933670 -118.458700 267 2876ft 138kts
31-Jul-18 20:15 33.934772 -118.517337 271 3071ft 189kts
31-Jul-18 20:16 33.936591 -118.582034 271 2998ft 194kts
31-Jul-18 20:17 33.937716 -118.646555 269 3029ft 194kts
31-Jul-18 20:18 33.938107 -118.710589 265 2966ft 196kts
31-Jul-18 20:19 33.900429 -118.738637 168 4542ft 158kts
31-Jul-18 20:20 33.875846 -118.702786 120 6897ft 144kts
31-Jul-18 20:21 33.853006 -118.662879 132 9034ft 146kts
31-Jul-18 20:22 33.823689 -118.627695 130 10987ft 155kts
31-Jul-18 20:23 33.792099 -118.589532 134 12648ft 179kts
31-Jul-18 20:24 33.762181 -118.543054 124 14609ft 176kts
31-Jul-18 20:25 33.732251 -118.502792 132 16265ft 178kts
31-Jul-18 20:26 33.698040 -118.457176 130 17476ft 206kts
31-Jul-18 20:27 33.656812 -118.400687 130 17428ft 235kts
31-Jul-18 20:28 33.614786 -118.342373 131 17503ft 239kts
31-Jul-18 20:29 33.569314 -118.283697 133 17397ft 244kts
31-Jul-18 20:30 33.525984 -118.228460 131 17443ft 241kts
31-Jul-18 20:31 33.482093 -118.170346 132 17496ft 241kts
31-Jul-18 20:32 33.438011 -118.109154 128 17505ft 242kts
31-Jul-18 20:33 33.394460 -118.047932 129 17448ft 244kts
31-Jul-18 20:34 33.350023 -117.986546 134 17461ft 243kts
31-Jul-18 20:35 33.302755 -117.929199 132 17490ft 242kts
31-Jul-18 20:36 33.257307 -117.869964 129 17496ft 242kts
31-Jul-18 20:37 33.214729 -117.807663 129 17504ft 242kts
31-Jul-18 20:38 33.170385 -117.751027 133 16565ft 233kts
31-Jul-18 20:39 33.122337 -117.699289 136 15217ft 234kts
31-Jul-18 20:40 33.079118 -117.641597 127 14063ft 232kts
31-Jul-18 20:41 33.036940 -117.583550 130 12802ft 231kts
31-Jul-18 20:42 32.994109 -117.526093 132 11622ft 230kts
31-Jul-18 20:43 32.950402 -117.473132 133 10610ft 229kts
31-Jul-18 20:44 32.910914 -117.416634 131 9371ft 218kts
31-Jul-18 20:45 32.871978 -117.363819 133 7176ft 218kts
31-Jul-18 20:46 32.833484 -117.313732 136 5161ft 211kts
31-Jul-18 20:47 32.792420 -117.267373 135 3157ft 203kts
31-Jul-18 20:48 32.765460 -117.211590 100 1485ft 187kts
31-Jul-18 20:49 32.758478 -117.166247 100 1386ft 141kts
31-Jul-18 20:50 32.734261 -117.145283 194 1062ft 116kts
31-Jul-18 20:51 32.730095 -117.175144 285 163ft 97kts
31-Jul-18 20:52 32.734170 -117.187590 99 17ft 13kts
31-Jul-18 20:53 32.733826 -117.186029 104 17ft 14kts
31-Jul-18 20:54 32.732274 -117.179573 105 18ft 22kts
31-Jul-18 20:55 32.732351 -117.177352 226 27ft 0kts
31-Jul-18 20:56 32.732352 -117.177351 226 27ft 0kts
31-Jul-18 20:57 32.732352 -117.177351 226 27ft 0kts
31-Jul-18 20:58 32.732352 -117.177351 226 27ft 0kts
31-Jul-18 20:59 32.732352 -117.177351 226 27ft 0kts
31-Jul-18 21:00 32.732352 -117.177351 226 27ft 0kts
31-Jul-18 21:01 32.732352 -117.177351 226 27ft 0kts
31-Jul-18 21:02 32.732352 -117.177351 226 27ft 0kts
31-Jul-18 21:03 32.732352 -117.177351 226 27ft 0kts
31-Jul-18 21:04 32.732352 -117.177351 226 27ft 0kts
31-Jul-18 21:05 32.732352 -117.177351 226 27ft 0kts
31-Jul-18 21:06 32.732352 -117.177351 226 27ft 0kts
31-Jul-18 21:07 32.732352 -117.177351 226 27ft 0kts

Navigation Log

Ident Type
1. KLAX Airport
2. KSAN Airport